sensor_id;sensor_type;location;lat;lon;timestamp;pressure;altitude;pressure_sealevel;temperature;humidity
30073;BME280;16897;52.422;13.678;2023-02-01T00:03:31;100694.53;;;6.71;62.24
30073;BME280;16897;52.422;13.678;2023-02-01T00:07:33;100715.47;;;6.88;62.24
30073;BME280;16897;52.422;13.678;2023-02-01T00:11:34;100721.31;;;6.93;62.32
30073;BME280;16897;52.422;13.678;2023-02-01T00:15:36;100704.97;;;6.91;62.40
30073;BME280;16897;52.422;13.678;2023-02-01T00:19:37;100720.47;;;6.93;62.16
30073;BME280;16897;52.422;13.678;2023-02-01T00:23:39;100706.06;;;6.85;62.10
30073;BME280;16897;52.422;13.678;2023-02-01T00:27:41;100697.00;;;6.74;62.20
30073;BME280;16897;52.422;13.678;2023-02-01T00:31:43;100715.41;;;6.90;62.43
30073;BME280;16897;52.422;13.678;2023-02-01T00:35:45;100671.38;;;6.66;61.99
30073;BME280;16897;52.422;13.678;2023-02-01T00:39:46;100672.06;;;6.70;62.32
30073;BME280;16897;52.422;13.678;2023-02-01T00:43:49;100711.72;;;6.95;62.20
30073;BME280;16897;52.422;13.678;2023-02-01T00:47:51;100718.44;;;7.01;62.05
30073;BME280;16897;52.422;13.678;2023-02-01T00:51:53;100729.66;;;7.01;62.34
30073;BME280;16897;52.422;13.678;2023-02-01T00:55:54;100720.31;;;6.97;62.32
30073;BME280;16897;52.422;13.678;2023-02-01T00:59:56;100738.22;;;7.03;62.24
30073;BME280;16897;52.422;13.678;2023-02-01T01:03:59;100736.41;;;7.05;62.09
30073;BME280;16897;52.422;13.678;2023-02-01T01:08:01;100724.03;;;6.90;62.13
30073;BME280;16897;52.422;13.678;2023-02-01T01:12:02;100741.75;;;7.02;62.19
30073;BME280;16897;52.422;13.678;2023-02-01T01:16:06;100753.69;;;7.06;62.14
30073;BME280;16897;52.422;13.678;2023-02-01T01:20:09;100750.94;;;7.09;62.10
30073;BME280;16897;52.422;13.678;2023-02-01T01:24:11;100725.50;;;6.97;62.15
30073;BME280;16897;52.422;13.678;2023-02-01T01:28:12;100704.78;;;6.96;61.95
30073;BME280;16897;52.422;13.678;2023-02-01T01:32:14;100658.75;;;6.79;62.14
30073;BME280;16897;52.422;13.678;2023-02-01T01:36:15;100714.81;;;7.05;62.04
30073;BME280;16897;52.422;13.678;2023-02-01T01:40:17;100715.53;;;7.08;62.10
30073;BME280;16897;52.422;13.678;2023-02-01T01:49:19;100701.75;;;7.06;62.18
30073;BME280;16897;52.422;13.678;2023-02-01T01:53:24;100685.47;;;7.03;62.13
30073;BME280;16897;52.422;13.678;2023-02-01T01:57:31;100682.91;;;7.01;62.08
30073;BME280;16897;52.422;13.678;2023-02-01T02:01:34;100682.78;;;7.04;62.13
30073;BME280;16897;52.422;13.678;2023-02-01T02:05:36;100688.72;;;7.08;62.21
30073;BME280;16897;52.422;13.678;2023-02-01T02:09:38;100611.25;;;6.56;62.14
30073;BME280;16897;52.422;13.678;2023-02-01T02:13:45;100689.69;;;7.05;62.19
30073;BME280;16897;52.422;13.678;2023-02-01T02:17:58;100685.72;;;6.97;62.03
30073;BME280;16897;52.422;13.678;2023-02-01T02:30:45;100679.44;;;7.02;62.17
30073;BME280;16897;52.422;13.678;2023-02-01T02:48:06;100662.97;;;7.02;62.10
30073;BME280;16897;52.422;13.678;2023-02-01T02:52:17;100677.38;;;7.11;62.00
30073;BME280;16897;52.422;13.678;2023-02-01T02:56:39;100655.16;;;7.03;62.00
30073;BME280;16897;52.422;13.678;2023-02-01T03:01:01;100677.22;;;7.14;62.18
30073;BME280;16897;52.422;13.678;2023-02-01T03:05:23;100673.59;;;7.18;62.17
30073;BME280;16897;52.422;13.678;2023-02-01T03:09:34;100662.53;;;7.13;61.94
30073;BME280;16897;52.422;13.678;2023-02-01T03:17:42;100653.06;;;7.12;61.98
30073;BME280;16897;52.422;13.678;2023-02-01T03:21:50;100651.00;;;7.20;62.00
30073;BME280;16897;52.422;13.678;2023-02-01T03:25:56;100658.50;;;7.26;62.13
30073;BME280;16897;52.422;13.678;2023-02-01T03:34:11;100641.25;;;7.25;62.06
30073;BME280;16897;52.422;13.678;2023-02-01T03:38:32;100635.41;;;7.20;62.18
30073;BME280;16897;52.422;13.678;2023-02-01T03:42:38;100620.53;;;7.23;61.92
30073;BME280;16897;52.422;13.678;2023-02-01T03:46:54;100624.75;;;7.26;62.16
30073;BME280;16897;52.422;13.678;2023-02-01T03:50:58;100622.44;;;7.20;62.03
30073;BME280;16897;52.422;13.678;2023-02-01T03:55:02;100629.75;;;7.30;61.93
30073;BME280;16897;52.422;13.678;2023-02-01T03:59:04;100619.50;;;7.27;62.11
30073;BME280;16897;52.422;13.678;2023-02-01T04:03:09;100607.56;;;7.23;61.88
30073;BME280;16897;52.422;13.678;2023-02-01T04:07:11;100572.19;;;7.00;61.92
30073;BME280;16897;52.422;13.678;2023-02-01T04:11:13;100559.22;;;7.00;62.00
30073;BME280;16897;52.422;13.678;2023-02-01T04:15:14;100619.19;;;7.35;62.11
30073;BME280;16897;52.422;13.678;2023-02-01T04:19:16;100625.16;;;7.37;62.02
30073;BME280;16897;52.422;13.678;2023-02-01T04:23:17;100614.88;;;7.34;61.81
30073;BME280;16897;52.422;13.678;2023-02-01T04:27:19;100620.72;;;7.39;62.08
30073;BME280;16897;52.422;13.678;2023-02-01T04:31:21;100620.56;;;7.42;61.99
30073;BME280;16897;52.422;13.678;2023-02-01T04:35:28;100607.94;;;7.35;61.93
30073;BME280;16897;52.422;13.678;2023-02-01T04:39:30;100624.75;;;7.46;61.90
30073;BME280;16897;52.422;13.678;2023-02-01T04:43:32;100614.34;;;7.46;62.03
30073;BME280;16897;52.422;13.678;2023-02-01T04:47:34;100582.94;;;7.32;61.99
30073;BME280;16897;52.422;13.678;2023-02-01T04:51:36;100603.13;;;7.46;61.85
30073;BME280;16897;52.422;13.678;2023-02-01T04:55:37;100602.06;;;7.50;61.95
30073;BME280;16897;52.422;13.678;2023-02-01T04:59:40;100588.50;;;7.43;62.12
30073;BME280;16897;52.422;13.678;2023-02-01T05:03:41;100598.56;;;7.51;61.87
30073;BME280;16897;52.422;13.678;2023-02-01T05:07:43;100591.53;;;7.53;61.92
30073;BME280;16897;52.422;13.678;2023-02-01T05:11:44;100587.09;;;7.55;61.79
30073;BME280;16897;52.422;13.678;2023-02-01T05:16:04;100580.00;;;7.59;61.91
30073;BME280;16897;52.422;13.678;2023-02-01T05:20:07;100582.41;;;7.63;61.90
30073;BME280;16897;52.422;13.678;2023-02-01T05:24:09;100532.53;;;7.36;61.83
30073;BME280;16897;52.422;13.678;2023-02-01T05:28:11;100563.59;;;7.58;61.83
30073;BME280;16897;52.422;13.678;2023-02-01T05:32:12;100556.50;;;7.62;61.94
30073;BME280;16897;52.422;13.678;2023-02-01T05:36:14;100553.13;;;7.60;61.85
30073;BME280;16897;52.422;13.678;2023-02-01T05:40:16;100555.53;;;7.64;62.02
30073;BME280;16897;52.422;13.678;2023-02-01T05:44:17;100564.66;;;7.73;61.99
30073;BME280;16897;52.422;13.678;2023-02-01T05:48:18;100550.25;;;7.66;61.98
30073;BME280;16897;52.422;13.678;2023-02-01T05:52:20;100562.69;;;7.78;61.77
30073;BME280;16897;52.422;13.678;2023-02-01T05:56:21;100566.03;;;7.80;61.73
30073;BME280;16897;52.422;13.678;2023-02-01T06:00:23;100567.88;;;7.78;61.69
30073;BME280;16897;52.422;13.678;2023-02-01T06:04:25;100536.97;;;7.72;61.93
30073;BME280;16897;52.422;13.678;2023-02-01T06:08:26;100552.50;;;7.73;61.86
30073;BME280;16897;52.422;13.678;2023-02-01T06:12:28;100561.72;;;7.81;61.88
30073;BME280;16897;52.422;13.678;2023-02-01T06:16:30;100557.50;;;7.78;61.85
30073;BME280;16897;52.422;13.678;2023-02-01T06:20:33;100559.94;;;7.81;61.78
30073;BME280;16897;52.422;13.678;2023-02-01T06:24:34;100548.00;;;7.77;61.77
30073;BME280;16897;52.422;13.678;2023-02-01T06:28:36;100558.19;;;7.82;61.79
30073;BME280;16897;52.422;13.678;2023-02-01T06:32:37;100549.75;;;7.76;61.77
30073;BME280;16897;52.422;13.678;2023-02-01T06:36:40;100560.78;;;7.82;61.90
30073;BME280;16897;52.422;13.678;2023-02-01T06:40:42;100553.34;;;7.74;61.57
30073;BME280;16897;52.422;13.678;2023-02-01T06:44:44;100532.97;;;7.65;61.67
30073;BME280;16897;52.422;13.678;2023-02-01T06:48:45;100556.84;;;7.73;61.67
30073;BME280;16897;52.422;13.678;2023-02-01T06:52:47;100551.50;;;7.76;61.62
30073;BME280;16897;52.422;13.678;2023-02-01T06:56:49;100536.31;;;7.67;61.74
30073;BME280;16897;52.422;13.678;2023-02-01T07:00:50;100547.44;;;7.70;61.88
30073;BME280;16897;52.422;13.678;2023-02-01T07:04:55;100539.66;;;7.70;61.86
30073;BME280;16897;52.422;13.678;2023-02-01T07:08:57;100539.69;;;7.69;61.86
30073;BME280;16897;52.422;13.678;2023-02-01T07:12:58;100489.78;;;7.43;61.89
30073;BME280;16897;52.422;13.678;2023-02-01T07:17:01;100508.88;;;7.61;61.84
30073;BME280;16897;52.422;13.678;2023-02-01T07:21:03;100515.63;;;7.65;61.80
30073;BME280;16897;52.422;13.678;2023-02-01T07:25:05;100512.19;;;7.65;61.73
30073;BME280;16897;52.422;13.678;2023-02-01T07:29:07;100513.72;;;7.69;61.77
30073;BME280;16897;52.422;13.678;2023-02-01T07:33:08;100503.47;;;7.66;61.67
30073;BME280;16897;52.422;13.678;2023-02-01T07:37:10;100496.75;;;7.62;61.73
30073;BME280;16897;52.422;13.678;2023-02-01T07:41:11;100471.03;;;7.56;61.62
30073;BME280;16897;52.422;13.678;2023-02-01T07:45:13;100487.66;;;7.70;61.64
30073;BME280;16897;52.422;13.678;2023-02-01T07:49:16;100480.69;;;7.71;61.73
30073;BME280;16897;52.422;13.678;2023-02-01T07:53:18;100473.06;;;7.68;61.89
30073;BME280;16897;52.422;13.678;2023-02-01T07:57:20;100464.69;;;7.61;61.66
30073;BME280;16897;52.422;13.678;2023-02-01T08:01:24;100474.59;;;7.72;61.59
30073;BME280;16897;52.422;13.678;2023-02-01T08:05:26;100480.50;;;7.75;61.58
30073;BME280;16897;52.422;13.678;2023-02-01T08:09:30;100478.88;;;7.73;61.59
30073;BME280;16897;52.422;13.678;2023-02-01T08:13:36;100463.84;;;7.61;61.74
30073;BME280;16897;52.422;13.678;2023-02-01T08:17:46;100454.06;;;7.48;61.57
30073;BME280;16897;52.422;13.678;2023-02-01T08:21:47;100464.94;;;7.57;61.60
30073;BME280;16897;52.422;13.678;2023-02-01T08:25:49;100432.31;;;7.32;61.58
30073;BME280;16897;52.422;13.678;2023-02-01T08:29:51;100471.94;;;7.54;61.69
30073;BME280;16897;52.422;13.678;2023-02-01T08:33:59;100483.31;;;7.52;61.66
30073;BME280;16897;52.422;13.678;2023-02-01T08:38:01;100479.69;;;7.37;61.52
30073;BME280;16897;52.422;13.678;2023-02-01T08:42:03;100469.56;;;7.31;61.62
30073;BME280;16897;52.422;13.678;2023-02-01T08:46:23;100488.38;;;7.36;61.84
30073;BME280;16897;52.422;13.678;2023-02-01T08:50:25;100451.81;;;7.22;61.79
30073;BME280;16897;52.422;13.678;2023-02-01T08:54:27;100471.19;;;7.34;61.89
30073;BME280;16897;52.422;13.678;2023-02-01T08:58:28;100460.28;;;7.25;61.55
30073;BME280;16897;52.422;13.678;2023-02-01T09:02:30;100482.53;;;7.31;61.62
30073;BME280;16897;52.422;13.678;2023-02-01T09:06:32;100469.06;;;7.23;61.57
30073;BME280;16897;52.422;13.678;2023-02-01T09:10:34;100478.81;;;7.18;61.74
30073;BME280;16897;52.422;13.678;2023-02-01T09:14:37;100487.25;;;7.23;61.76
30073;BME280;16897;52.422;13.678;2023-02-01T09:18:39;100490.97;;;7.17;61.76
30073;BME280;16897;52.422;13.678;2023-02-01T09:22:40;100477.63;;;7.06;61.64
30073;BME280;16897;52.422;13.678;2023-02-01T09:26:42;100497.97;;;7.15;61.73
30073;BME280;16897;52.422;13.678;2023-02-01T09:30:43;100506.75;;;7.13;61.68
30073;BME280;16897;52.422;13.678;2023-02-01T09:34:45;100478.44;;;6.87;61.67
30073;BME280;16897;52.422;13.678;2023-02-01T09:38:46;100525.84;;;7.12;61.84
30073;BME280;16897;52.422;13.678;2023-02-01T09:47:22;100528.44;;;7.12;61.88
30073;BME280;16897;52.422;13.678;2023-02-01T09:51:27;100522.25;;;7.14;61.83
30073;BME280;16897;52.422;13.678;2023-02-01T09:55:41;100534.97;;;7.20;61.78
30073;BME280;16897;52.422;13.678;2023-02-01T09:59:46;100545.69;;;7.13;61.95
30073;BME280;16897;52.422;13.678;2023-02-01T10:03:53;100537.00;;;7.14;61.99
30073;BME280;16897;52.422;13.678;2023-02-01T10:08:04;100550.69;;;7.17;61.94
30073;BME280;16897;52.422;13.678;2023-02-01T10:12:24;100561.66;;;7.24;61.82
30073;BME280;16897;52.422;13.678;2023-02-01T10:16:44;100559.13;;;7.22;61.83
30073;BME280;16897;52.422;13.678;2023-02-01T10:29:19;100568.81;;;7.19;61.90
30073;BME280;16897;52.422;13.678;2023-02-01T10:33:30;100579.97;;;7.21;62.09
30073;BME280;16897;52.422;13.678;2023-02-01T10:37:33;100531.19;;;6.88;62.10
30073;BME280;16897;52.422;13.678;2023-02-01T10:41:36;100562.25;;;7.10;62.08
30073;BME280;16897;52.422;13.678;2023-02-01T10:45:40;100581.84;;;7.17;61.79
30073;BME280;16897;52.422;13.678;2023-02-01T10:50:02;100576.75;;;7.16;62.11
30073;BME280;16897;52.422;13.678;2023-02-01T10:54:34;100574.91;;;7.18;62.10
30073;BME280;16897;52.422;13.678;2023-02-01T10:58:42;100555.19;;;7.14;62.19
30073;BME280;16897;52.422;13.678;2023-02-01T11:02:44;100567.06;;;7.19;61.92
30073;BME280;16897;52.422;13.678;2023-02-01T11:07:33;100572.25;;;7.19;61.96
30073;BME280;16897;52.422;13.678;2023-02-01T11:11:15;100568.69;;;7.22;62.10
30073;BME280;16897;52.422;13.678;2023-02-01T11:15:21;100581.53;;;7.25;62.15
30073;BME280;16897;52.422;13.678;2023-02-01T11:19:23;100532.34;;;7.01;62.08
30073;BME280;16897;52.422;13.678;2023-02-01T11:23:27;100531.97;;;7.11;62.08
30073;BME280;16897;52.422;13.678;2023-02-01T11:27:30;100521.75;;;7.06;62.09
30073;BME280;16897;52.422;13.678;2023-02-01T11:31:34;100564.00;;;7.30;62.25
30073;BME280;16897;52.422;13.678;2023-02-01T11:35:37;100526.19;;;7.23;62.05
30073;BME280;16897;52.422;13.678;2023-02-01T11:39:41;100547.47;;;7.31;62.07
30073;BME280;16897;52.422;13.678;2023-02-01T11:43:55;100547.97;;;7.39;62.07
30073;BME280;16897;52.422;13.678;2023-02-01T11:47:57;100531.00;;;7.32;62.22
30073;BME280;16897;52.422;13.678;2023-02-01T12:13:42;100525.44;;;7.78;62.18
30073;BME280;16897;52.422;13.678;2023-02-01T12:18:43;100509.31;;;7.88;62.27
30073;BME280;16897;52.422;13.678;2023-02-01T12:23:06;100497.72;;;7.95;62.34
30073;BME280;16897;52.422;13.678;2023-02-01T12:40:37;100473.75;;;8.08;62.14
30073;BME280;16897;52.422;13.678;2023-02-01T12:49:44;100431.38;;;8.06;62.27
30073;BME280;16897;52.422;13.678;2023-02-01T12:53:52;100430.16;;;8.13;62.14
30073;BME280;16897;52.422;13.678;2023-02-01T13:06:47;100397.69;;;8.20;62.13
30073;BME280;16897;52.422;13.678;2023-02-01T13:11:04;100420.34;;;8.35;62.44
30073;BME280;16897;52.422;13.678;2023-02-01T13:20:23;100401.38;;;8.33;62.04
30073;BME280;16897;52.422;13.678;2023-02-01T13:23:53;100399.44;;;8.37;62.07
30073;BME280;16897;52.422;13.678;2023-02-01T13:27:56;100385.47;;;8.39;62.13
30073;BME280;16897;52.422;13.678;2023-02-01T13:40:41;100423.66;;;8.39;62.29
30073;BME280;16897;52.422;13.678;2023-02-01T13:44:48;100393.09;;;8.25;62.28
30073;BME280;16897;52.422;13.678;2023-02-01T13:48:54;100430.00;;;8.51;62.15
30073;BME280;16897;52.422;13.678;2023-02-01T13:53:22;100424.63;;;8.54;62.11
30073;BME280;16897;52.422;13.678;2023-02-01T13:57:38;100388.84;;;8.41;62.02
30073;BME280;16897;52.422;13.678;2023-02-01T14:01:43;100406.16;;;8.58;62.21
30073;BME280;16897;52.422;13.678;2023-02-01T14:09:48;100340.75;;;8.31;62.23
30073;BME280;16897;52.422;13.678;2023-02-01T14:13:50;100387.03;;;8.59;62.23
30073;BME280;16897;52.422;13.678;2023-02-01T14:17:52;100372.19;;;8.61;62.21
30073;BME280;16897;52.422;13.678;2023-02-01T14:22:40;100385.72;;;8.68;62.12
30073;BME280;16897;52.422;13.678;2023-02-01T14:26:19;100374.63;;;8.64;62.07
30073;BME280;16897;52.422;13.678;2023-02-01T14:30:21;100381.19;;;8.72;62.24
30073;BME280;16897;52.422;13.678;2023-02-01T14:38:48;100345.91;;;8.66;62.15
30073;BME280;16897;52.422;13.678;2023-02-01T14:42:51;100350.81;;;8.72;62.12
30073;BME280;16897;52.422;13.678;2023-02-01T14:51:21;100263.72;;;8.29;61.97
30073;BME280;16897;52.422;13.678;2023-02-01T14:59:27;100318.03;;;8.68;62.14
30073;BME280;16897;52.422;13.678;2023-02-01T15:03:56;100311.81;;;8.71;62.02
30073;BME280;16897;52.422;13.678;2023-02-01T15:08:05;100307.44;;;8.71;62.09
30073;BME280;16897;52.422;13.678;2023-02-01T15:16:16;100285.28;;;8.80;61.95
30073;BME280;16897;52.422;13.678;2023-02-01T15:20:22;100280.94;;;8.80;61.83
30073;BME280;16897;52.422;13.678;2023-02-01T15:24:25;100284.63;;;8.76;61.92
30073;BME280;16897;52.422;13.678;2023-02-01T15:28:27;100292.50;;;8.75;61.89
30073;BME280;16897;52.422;13.678;2023-02-01T15:32:35;100262.00;;;8.45;61.96
30073;BME280;16897;52.422;13.678;2023-02-01T15:36:37;100303.50;;;8.64;61.71
30073;BME280;16897;52.422;13.678;2023-02-01T15:40:51;100312.47;;;8.58;61.94
30073;BME280;16897;52.422;13.678;2023-02-01T15:44:54;100307.78;;;8.49;61.80
30073;BME280;16897;52.422;13.678;2023-02-01T15:48:55;100315.91;;;8.43;61.89
30073;BME280;16897;52.422;13.678;2023-02-01T15:52:57;100313.06;;;8.30;61.87
30073;BME280;16897;52.422;13.678;2023-02-01T15:57:00;100308.38;;;8.21;61.73
30073;BME280;16897;52.422;13.678;2023-02-01T16:01:04;100301.94;;;8.11;61.68
30073;BME280;16897;52.422;13.678;2023-02-01T16:05:37;100332.16;;;8.13;61.78
30073;BME280;16897;52.422;13.678;2023-02-01T16:09:41;100305.50;;;7.92;61.79
30073;BME280;16897;52.422;13.678;2023-02-01T16:13:50;100331.44;;;7.94;61.79
30073;BME280;16897;52.422;13.678;2023-02-01T16:17:51;100324.72;;;7.72;61.93
30073;BME280;16897;52.422;13.678;2023-02-01T16:21:56;100362.75;;;7.73;61.67
30073;BME280;16897;52.422;13.678;2023-02-01T16:25:58;100367.56;;;7.64;61.57
30073;BME280;16897;52.422;13.678;2023-02-01T16:29:59;100381.00;;;7.54;61.49
30073;BME280;16897;52.422;13.678;2023-02-01T16:34:02;100332.03;;;7.11;61.56
30073;BME280;16897;52.422;13.678;2023-02-01T16:38:09;100359.00;;;7.25;61.86
30073;BME280;16897;52.422;13.678;2023-02-01T16:42:14;100305.53;;;6.85;61.79
30073;BME280;16897;52.422;13.678;2023-02-01T16:46:19;100340.38;;;6.98;61.54
30073;BME280;16897;52.422;13.678;2023-02-01T16:50:24;100353.31;;;7.00;61.65
30073;BME280;16897;52.422;13.678;2023-02-01T16:54:26;100333.28;;;6.83;61.59
30073;BME280;16897;52.422;13.678;2023-02-01T16:58:27;100370.19;;;6.90;61.90
30073;BME280;16897;52.422;13.678;2023-02-01T17:02:29;100301.25;;;6.46;61.75
30073;BME280;16897;52.422;13.678;2023-02-01T17:06:31;100373.47;;;6.74;61.54
30073;BME280;16897;52.422;13.678;2023-02-01T17:10:38;100348.44;;;6.54;61.77
30073;BME280;16897;52.422;13.678;2023-02-01T17:14:39;100386.28;;;6.58;61.77
30073;BME280;16897;52.422;13.678;2023-02-01T17:18:41;100387.63;;;6.48;61.85
30073;BME280;16897;52.422;13.678;2023-02-01T17:22:43;100359.16;;;6.26;61.84
30073;BME280;16897;52.422;13.678;2023-02-01T17:26:44;100367.81;;;6.27;62.00
30073;BME280;16897;52.422;13.678;2023-02-01T17:30:46;100407.59;;;6.46;62.03
30073;BME280;16897;52.422;13.678;2023-02-01T17:34:47;100407.28;;;6.54;61.89
30073;BME280;16897;52.422;13.678;2023-02-01T17:38:48;100398.25;;;6.42;61.97
30073;BME280;16897;52.422;13.678;2023-02-01T17:42:50;100412.78;;;6.46;61.92
30073;BME280;16897;52.422;13.678;2023-02-01T17:46:52;100384.44;;;6.41;62.12
30073;BME280;16897;52.422;13.678;2023-02-01T17:50:53;100401.44;;;6.49;61.87
30073;BME280;16897;52.422;13.678;2023-02-01T17:54:58;100412.47;;;6.54;61.92
30073;BME280;16897;52.422;13.678;2023-02-01T17:59:00;100348.50;;;6.13;62.06
30073;BME280;16897;52.422;13.678;2023-02-01T18:03:01;100413.63;;;6.47;61.99
30073;BME280;16897;52.422;13.678;2023-02-01T18:07:02;100411.59;;;6.53;61.94
30073;BME280;16897;52.422;13.678;2023-02-01T18:11:05;100345.44;;;6.04;62.10
30073;BME280;16897;52.422;13.678;2023-02-01T18:15:18;100428.03;;;6.54;61.87
30073;BME280;16897;52.422;13.678;2023-02-01T18:19:20;100444.28;;;6.57;61.94
30073;BME280;16897;52.422;13.678;2023-02-01T18:23:22;100427.88;;;6.57;62.06
30073;BME280;16897;52.422;13.678;2023-02-01T18:27:24;100428.66;;;6.59;62.07
30073;BME280;16897;52.422;13.678;2023-02-01T18:31:29;100425.34;;;6.55;62.15
30073;BME280;16897;52.422;13.678;2023-02-01T18:35:31;100435.44;;;6.61;62.05
30073;BME280;16897;52.422;13.678;2023-02-01T18:39:33;100432.75;;;6.64;62.21
30073;BME280;16897;52.422;13.678;2023-02-01T18:43:34;100427.56;;;6.64;62.09
30073;BME280;16897;52.422;13.678;2023-02-01T18:47:36;100435.34;;;6.64;62.08
30073;BME280;16897;52.422;13.678;2023-02-01T18:51:38;100456.38;;;6.77;62.24
30073;BME280;16897;52.422;13.678;2023-02-01T18:55:40;100410.88;;;6.50;62.34
30073;BME280;16897;52.422;13.678;2023-02-01T18:59:42;100439.13;;;6.76;62.27
30073;BME280;16897;52.422;13.678;2023-02-01T19:03:44;100448.25;;;6.85;62.04
30073;BME280;16897;52.422;13.678;2023-02-01T19:07:46;100426.16;;;6.76;62.14
30073;BME280;16897;52.422;13.678;2023-02-01T19:11:49;100451.50;;;6.90;62.22
30073;BME280;16897;52.422;13.678;2023-02-01T19:15:50;100426.09;;;6.78;62.09
30073;BME280;16897;52.422;13.678;2023-02-01T19:19:52;100429.41;;;6.81;62.22
30073;BME280;16897;52.422;13.678;2023-02-01T19:23:53;100365.72;;;6.35;62.08
30073;BME280;16897;52.422;13.678;2023-02-01T19:27:55;100456.78;;;6.89;62.18
30073;BME280;16897;52.422;13.678;2023-02-01T19:31:56;100408.09;;;6.54;62.28
30073;BME280;16897;52.422;13.678;2023-02-01T19:35:59;100455.91;;;6.88;62.32
30073;BME280;16897;52.422;13.678;2023-02-01T19:40:01;100457.63;;;6.89;62.13
30073;BME280;16897;52.422;13.678;2023-02-01T19:44:03;100476.19;;;6.99;62.15
30073;BME280;16897;52.422;13.678;2023-02-01T19:48:06;100475.50;;;6.95;62.26
30073;BME280;16897;52.422;13.678;2023-02-01T19:52:07;100489.91;;;7.02;62.26
30073;BME280;16897;52.422;13.678;2023-02-01T19:56:09;100484.72;;;7.02;62.35
30073;BME280;16897;52.422;13.678;2023-02-01T20:00:11;100477.81;;;7.01;62.13
30073;BME280;16897;52.422;13.678;2023-02-01T20:04:17;100493.25;;;7.04;62.19
30073;BME280;16897;52.422;13.678;2023-02-01T20:08:18;100451.78;;;6.84;62.30
30073;BME280;16897;52.422;13.678;2023-02-01T20:12:20;100483.31;;;7.14;62.14
30073;BME280;16897;52.422;13.678;2023-02-01T20:16:22;100502.31;;;7.15;62.35
30073;BME280;16897;52.422;13.678;2023-02-01T20:20:24;100477.69;;;7.04;62.31
30073;BME280;16897;52.422;13.678;2023-02-01T20:24:25;100458.81;;;7.01;62.34
30073;BME280;16897;52.422;13.678;2023-02-01T20:28:26;100497.78;;;7.20;62.25
30073;BME280;16897;52.422;13.678;2023-02-01T20:32:28;100492.78;;;7.15;62.11
30073;BME280;16897;52.422;13.678;2023-02-01T20:36:30;100452.00;;;6.98;62.32
30073;BME280;16897;52.422;13.678;2023-02-01T20:40:32;100459.50;;;7.04;62.37
30073;BME280;16897;52.422;13.678;2023-02-01T20:44:33;100498.41;;;7.25;62.38
30073;BME280;16897;52.422;13.678;2023-02-01T20:48:35;100491.06;;;7.16;62.31
30073;BME280;16897;52.422;13.678;2023-02-01T20:52:37;100514.13;;;7.22;62.31
30073;BME280;16897;52.422;13.678;2023-02-01T20:56:39;100490.56;;;7.07;62.22
30073;BME280;16897;52.422;13.678;2023-02-01T21:00:43;100498.25;;;7.09;62.36
30073;BME280;16897;52.422;13.678;2023-02-01T21:04:44;100509.84;;;7.21;62.21
30073;BME280;16897;52.422;13.678;2023-02-01T21:08:46;100498.94;;;7.13;62.23
30073;BME280;16897;52.422;13.678;2023-02-01T21:12:47;100503.13;;;7.17;62.34
30073;BME280;16897;52.422;13.678;2023-02-01T21:16:49;100511.88;;;7.14;62.25
30073;BME280;16897;52.422;13.678;2023-02-01T21:20:50;100525.50;;;7.19;62.27
30073;BME280;16897;52.422;13.678;2023-02-01T21:24:52;100535.81;;;7.21;62.10
30073;BME280;16897;52.422;13.678;2023-02-01T21:28:54;100516.16;;;7.15;62.25
30073;BME280;16897;52.422;13.678;2023-02-01T21:32:57;100507.66;;;7.12;62.32
30073;BME280;16897;52.422;13.678;2023-02-01T21:37:00;100506.69;;;7.14;62.13
30073;BME280;16897;52.422;13.678;2023-02-01T21:41:02;100523.25;;;7.12;62.27
30073;BME280;16897;52.422;13.678;2023-02-01T21:45:22;100529.28;;;7.12;62.27
30073;BME280;16897;52.422;13.678;2023-02-01T21:49:24;100505.41;;;7.04;62.22
30073;BME280;16897;52.422;13.678;2023-02-01T21:53:27;100518.34;;;7.05;62.19
30073;BME280;16897;52.422;13.678;2023-02-01T21:57:28;100520.00;;;7.06;62.25
30073;BME280;16897;52.422;13.678;2023-02-01T22:01:30;100505.59;;;6.99;62.11
30073;BME280;16897;52.422;13.678;2023-02-01T22:05:31;100523.53;;;7.05;62.26
30073;BME280;16897;52.422;13.678;2023-02-01T22:09:33;100508.31;;;6.96;62.12
30073;BME280;16897;52.422;13.678;2023-02-01T22:13:34;100530.53;;;7.03;62.15
30073;BME280;16897;52.422;13.678;2023-02-01T22:17:35;100527.28;;;6.98;62.14
30073;BME280;16897;52.422;13.678;2023-02-01T22:21:38;100539.25;;;7.02;62.18
30073;BME280;16897;52.422;13.678;2023-02-01T22:25:41;100545.31;;;7.01;62.25
30073;BME280;16897;52.422;13.678;2023-02-01T22:29:43;100548.84;;;7.00;62.21
30073;BME280;16897;52.422;13.678;2023-02-01T22:33:45;100536.75;;;6.99;62.28
30073;BME280;16897;52.422;13.678;2023-02-01T22:37:47;100476.63;;;6.69;62.21
30073;BME280;16897;52.422;13.678;2023-02-01T22:41:48;100526.50;;;6.96;62.17
30073;BME280;16897;52.422;13.678;2023-02-01T22:45:50;100509.53;;;6.89;62.13
30073;BME280;16897;52.422;13.678;2023-02-01T22:49:52;100510.88;;;6.98;62.22
30073;BME280;16897;52.422;13.678;2023-02-01T22:53:54;100511.16;;;6.92;62.30
30073;BME280;16897;52.422;13.678;2023-02-01T22:57:59;100507.22;;;7.02;62.32
30073;BME280;16897;52.422;13.678;2023-02-01T23:02:01;100495.63;;;6.90;62.26
30073;BME280;16897;52.422;13.678;2023-02-01T23:06:04;100511.44;;;7.04;62.22
30073;BME280;16897;52.422;13.678;2023-02-01T23:10:06;100509.63;;;7.06;62.08
30073;BME280;16897;52.422;13.678;2023-02-01T23:14:08;100495.94;;;7.03;62.33
30073;BME280;16897;52.422;13.678;2023-02-01T23:18:10;100489.69;;;7.07;62.11
30073;BME280;16897;52.422;13.678;2023-02-01T23:22:12;100473.41;;;7.03;62.02
30073;BME280;16897;52.422;13.678;2023-02-01T23:26:13;100467.78;;;6.94;62.05
30073;BME280;16897;52.422;13.678;2023-02-01T23:30:15;100464.66;;;7.06;62.24